sensor_id;sensor_type;location;lat;lon;timestamp;P1;durP1;ratioP1;P2;durP2;ratioP2
39994;SDS011;25686;51.908;10.418;2023-04-16T00:00:54;91.38;;;52.22;;
39994;SDS011;25686;51.908;10.418;2023-04-16T00:02:55;94.47;;;51.85;;
39994;SDS011;25686;51.908;10.418;2023-04-16T00:04:56;86.18;;;48.75;;
39994;SDS011;25686;51.908;10.418;2023-04-16T00:06:57;79.18;;;47.45;;
39994;SDS011;25686;51.908;10.418;2023-04-16T00:08:58;84.22;;;48.97;;
39994;SDS011;25686;51.908;10.418;2023-04-16T00:10:59;78.15;;;46.20;;
39994;SDS011;25686;51.908;10.418;2023-04-16T00:13:00;80.05;;;45.90;;
39994;SDS011;25686;51.908;10.418;2023-04-16T00:15:01;78.43;;;46.20;;
39994;SDS011;25686;51.908;10.418;2023-04-16T00:17:02;77.78;;;46.25;;
39994;SDS011;25686;51.908;10.418;2023-04-16T00:19:02;80.80;;;47.97;;
39994;SDS011;25686;51.908;10.418;2023-04-16T00:21:03;81.55;;;48.08;;
39994;SDS011;25686;51.908;10.418;2023-04-16T00:23:04;83.15;;;46.92;;
39994;SDS011;25686;51.908;10.418;2023-04-16T00:25:05;80.25;;;46.65;;
39994;SDS011;25686;51.908;10.418;2023-04-16T00:27:06;83.50;;;47.63;;
39994;SDS011;25686;51.908;10.418;2023-04-16T00:29:07;79.65;;;46.70;;
39994;SDS011;25686;51.908;10.418;2023-04-16T00:31:08;81.93;;;47.83;;
39994;SDS011;25686;51.908;10.418;2023-04-16T00:33:09;82.05;;;48.97;;
39994;SDS011;25686;51.908;10.418;2023-04-16T00:35:10;83.05;;;47.13;;
39994;SDS011;25686;51.908;10.418;2023-04-16T00:37:11;82.10;;;47.28;;
39994;SDS011;25686;51.908;10.418;2023-04-16T00:39:12;84.20;;;48.45;;
39994;SDS011;25686;51.908;10.418;2023-04-16T00:41:13;82.10;;;47.55;;
39994;SDS011;25686;51.908;10.418;2023-04-16T00:43:21;83.03;;;46.53;;
39994;SDS011;25686;51.908;10.418;2023-04-16T00:45:23;76.85;;;46.65;;
39994;SDS011;25686;51.908;10.418;2023-04-16T00:47:24;78.57;;;46.45;;
39994;SDS011;25686;51.908;10.418;2023-04-16T00:49:26;71.80;;;43.78;;
39994;SDS011;25686;51.908;10.418;2023-04-16T00:51:28;72.93;;;43.25;;
39994;SDS011;25686;51.908;10.418;2023-04-16T00:53:31;73.15;;;44.38;;
39994;SDS011;25686;51.908;10.418;2023-04-16T00:55:33;72.35;;;44.60;;
39994;SDS011;25686;51.908;10.418;2023-04-16T00:57:34;69.88;;;45.10;;
39994;SDS011;25686;51.908;10.418;2023-04-16T00:59:35;75.22;;;45.53;;
39994;SDS011;25686;51.908;10.418;2023-04-16T01:01:36;78.55;;;46.63;;
39994;SDS011;25686;51.908;10.418;2023-04-16T01:03:38;77.03;;;47.55;;
39994;SDS011;25686;51.908;10.418;2023-04-16T01:05:39;73.35;;;45.42;;
39994;SDS011;25686;51.908;10.418;2023-04-16T01:07:40;67.90;;;44.13;;
39994;SDS011;25686;51.908;10.418;2023-04-16T01:09:41;74.18;;;46.08;;
39994;SDS011;25686;51.908;10.418;2023-04-16T01:11:42;77.75;;;48.50;;
39994;SDS011;25686;51.908;10.418;2023-04-16T01:13:43;80.68;;;49.17;;
39994;SDS011;25686;51.908;10.418;2023-04-16T01:15:44;80.63;;;48.92;;
39994;SDS011;25686;51.908;10.418;2023-04-16T01:17:45;82.30;;;50.65;;
39994;SDS011;25686;51.908;10.418;2023-04-16T01:19:46;81.55;;;50.45;;
39994;SDS011;25686;51.908;10.418;2023-04-16T01:21:47;79.45;;;48.85;;
39994;SDS011;25686;51.908;10.418;2023-04-16T01:23:48;81.47;;;47.85;;
39994;SDS011;25686;51.908;10.418;2023-04-16T01:25:49;84.40;;;47.80;;
39994;SDS011;25686;51.908;10.418;2023-04-16T01:27:50;84.72;;;50.05;;
39994;SDS011;25686;51.908;10.418;2023-04-16T01:29:53;97.38;;;55.65;;
39994;SDS011;25686;51.908;10.418;2023-04-16T01:31:55;98.82;;;54.92;;
39994;SDS011;25686;51.908;10.418;2023-04-16T01:33:56;107.18;;;57.00;;
39994;SDS011;25686;51.908;10.418;2023-04-16T01:35:57;107.53;;;57.90;;
39994;SDS011;25686;51.908;10.418;2023-04-16T01:38:01;110.10;;;58.28;;
39994;SDS011;25686;51.908;10.418;2023-04-16T01:40:02;109.13;;;58.45;;
39994;SDS011;25686;51.908;10.418;2023-04-16T01:42:03;105.50;;;57.13;;
39994;SDS011;25686;51.908;10.418;2023-04-16T01:44:04;104.93;;;57.13;;
39994;SDS011;25686;51.908;10.418;2023-04-16T01:48:09;98.97;;;55.05;;
39994;SDS011;25686;51.908;10.418;2023-04-16T01:50:10;88.82;;;51.20;;
39994;SDS011;25686;51.908;10.418;2023-04-16T01:52:11;83.18;;;49.45;;
39994;SDS011;25686;51.908;10.418;2023-04-16T01:54:12;84.60;;;50.63;;
39994;SDS011;25686;51.908;10.418;2023-04-16T01:56:13;88.90;;;51.70;;
39994;SDS011;25686;51.908;10.418;2023-04-16T01:58:14;85.07;;;49.80;;
39994;SDS011;25686;51.908;10.418;2023-04-16T02:00:15;93.95;;;53.50;;
39994;SDS011;25686;51.908;10.418;2023-04-16T02:02:16;98.65;;;53.00;;
39994;SDS011;25686;51.908;10.418;2023-04-16T02:04:17;96.75;;;53.05;;
39994;SDS011;25686;51.908;10.418;2023-04-16T02:06:18;100.50;;;54.22;;
39994;SDS011;25686;51.908;10.418;2023-04-16T02:08:19;98.20;;;53.70;;
39994;SDS011;25686;51.908;10.418;2023-04-16T02:10:20;97.43;;;54.15;;
39994;SDS011;25686;51.908;10.418;2023-04-16T02:12:21;107.90;;;53.75;;
39994;SDS011;25686;51.908;10.418;2023-04-16T02:14:22;111.05;;;53.80;;
39994;SDS011;25686;51.908;10.418;2023-04-16T02:16:24;117.65;;;55.17;;
39994;SDS011;25686;51.908;10.418;2023-04-16T02:18:25;107.45;;;55.85;;
39994;SDS011;25686;51.908;10.418;2023-04-16T02:20:26;124.25;;;55.10;;
39994;SDS011;25686;51.908;10.418;2023-04-16T02:22:27;131.23;;;54.75;;
39994;SDS011;25686;51.908;10.418;2023-04-16T02:24:28;108.63;;;53.90;;
39994;SDS011;25686;51.908;10.418;2023-04-16T02:26:30;157.82;;;57.50;;
39994;SDS011;25686;51.908;10.418;2023-04-16T02:28:31;146.32;;;54.63;;
39994;SDS011;25686;51.908;10.418;2023-04-16T02:30:32;354.98;;;59.67;;
39994;SDS011;25686;51.908;10.418;2023-04-16T02:32:33;241.50;;;60.30;;
39994;SDS011;25686;51.908;10.418;2023-04-16T02:34:34;232.48;;;61.97;;
39994;SDS011;25686;51.908;10.418;2023-04-16T02:36:35;320.23;;;59.92;;
39994;SDS011;25686;51.908;10.418;2023-04-16T02:38:36;215.02;;;62.78;;
39994;SDS011;25686;51.908;10.418;2023-04-16T02:40:37;379.02;;;65.55;;
39994;SDS011;25686;51.908;10.418;2023-04-16T02:42:38;380.63;;;61.75;;
39994;SDS011;25686;51.908;10.418;2023-04-16T02:44:39;121.20;;;62.00;;
39994;SDS011;25686;51.908;10.418;2023-04-16T02:46:40;206.80;;;63.17;;
39994;SDS011;25686;51.908;10.418;2023-04-16T02:48:41;236.18;;;64.45;;
39994;SDS011;25686;51.908;10.418;2023-04-16T02:50:42;157.10;;;65.10;;
39994;SDS011;25686;51.908;10.418;2023-04-16T02:52:43;247.13;;;65.68;;
39994;SDS011;25686;51.908;10.418;2023-04-16T02:54:44;166.70;;;64.60;;
39994;SDS011;25686;51.908;10.418;2023-04-16T02:56:45;264.92;;;66.63;;
39994;SDS011;25686;51.908;10.418;2023-04-16T02:58:46;329.85;;;67.25;;
39994;SDS011;25686;51.908;10.418;2023-04-16T03:00:47;294.52;;;68.28;;
39994;SDS011;25686;51.908;10.418;2023-04-16T03:02:48;197.93;;;65.50;;
39994;SDS011;25686;51.908;10.418;2023-04-16T03:04:49;291.35;;;66.05;;
39994;SDS011;25686;51.908;10.418;2023-04-16T03:06:50;163.35;;;63.95;;
39994;SDS011;25686;51.908;10.418;2023-04-16T03:08:51;149.85;;;61.60;;
39994;SDS011;25686;51.908;10.418;2023-04-16T03:10:52;199.32;;;67.78;;
39994;SDS011;25686;51.908;10.418;2023-04-16T03:12:53;182.85;;;64.22;;
39994;SDS011;25686;51.908;10.418;2023-04-16T03:14:54;137.65;;;62.60;;
39994;SDS011;25686;51.908;10.418;2023-04-16T03:16:56;138.13;;;63.40;;
39994;SDS011;25686;51.908;10.418;2023-04-16T03:18:57;146.27;;;63.78;;
39994;SDS011;25686;51.908;10.418;2023-04-16T03:20:58;154.63;;;64.32;;
39994;SDS011;25686;51.908;10.418;2023-04-16T03:22:59;166.60;;;63.97;;
39994;SDS011;25686;51.908;10.418;2023-04-16T03:25:00;162.07;;;64.13;;
39994;SDS011;25686;51.908;10.418;2023-04-16T03:27:01;150.30;;;64.45;;
39994;SDS011;25686;51.908;10.418;2023-04-16T03:29:02;140.85;;;63.22;;
39994;SDS011;25686;51.908;10.418;2023-04-16T03:31:03;149.25;;;66.78;;
39994;SDS011;25686;51.908;10.418;2023-04-16T03:33:04;187.27;;;73.65;;
39994;SDS011;25686;51.908;10.418;2023-04-16T03:35:06;193.25;;;72.90;;
39994;SDS011;25686;51.908;10.418;2023-04-16T03:37:07;179.43;;;71.60;;
39994;SDS011;25686;51.908;10.418;2023-04-16T03:39:10;192.00;;;75.85;;
39994;SDS011;25686;51.908;10.418;2023-04-16T03:41:11;274.10;;;82.03;;
39994;SDS011;25686;51.908;10.418;2023-04-16T03:43:12;228.13;;;84.85;;
39994;SDS011;25686;51.908;10.418;2023-04-16T03:45:13;267.35;;;85.72;;
39994;SDS011;25686;51.908;10.418;2023-04-16T03:47:14;244.15;;;85.25;;
39994;SDS011;25686;51.908;10.418;2023-04-16T03:49:16;254.75;;;86.03;;
39994;SDS011;25686;51.908;10.418;2023-04-16T03:51:17;253.98;;;84.50;;
39994;SDS011;25686;51.908;10.418;2023-04-16T03:53:18;401.45;;;84.97;;
39994;SDS011;25686;51.908;10.418;2023-04-16T03:55:19;243.35;;;85.05;;
39994;SDS011;25686;51.908;10.418;2023-04-16T03:57:20;232.38;;;81.97;;
39994;SDS011;25686;51.908;10.418;2023-04-16T03:59:21;267.05;;;85.32;;
39994;SDS011;25686;51.908;10.418;2023-04-16T04:01:22;401.52;;;82.05;;
39994;SDS011;25686;51.908;10.418;2023-04-16T04:03:23;551.53;;;82.63;;
39994;SDS011;25686;51.908;10.418;2023-04-16T04:05:25;231.07;;;81.88;;
39994;SDS011;25686;51.908;10.418;2023-04-16T04:07:26;293.65;;;80.82;;
39994;SDS011;25686;51.908;10.418;2023-04-16T04:09:27;244.02;;;82.22;;
39994;SDS011;25686;51.908;10.418;2023-04-16T04:11:28;249.20;;;79.68;;
39994;SDS011;25686;51.908;10.418;2023-04-16T04:13:28;251.07;;;79.78;;
39994;SDS011;25686;51.908;10.418;2023-04-16T04:15:30;229.60;;;78.90;;
39994;SDS011;25686;51.908;10.418;2023-04-16T04:17:31;228.45;;;77.90;;
39994;SDS011;25686;51.908;10.418;2023-04-16T04:19:32;219.05;;;75.57;;
39994;SDS011;25686;51.908;10.418;2023-04-16T04:21:33;208.40;;;71.78;;
39994;SDS011;25686;51.908;10.418;2023-04-16T04:23:34;190.98;;;71.03;;
39994;SDS011;25686;51.908;10.418;2023-04-16T04:25:35;216.98;;;65.38;;
39994;SDS011;25686;51.908;10.418;2023-04-16T04:27:36;176.55;;;59.00;;
39994;SDS011;25686;51.908;10.418;2023-04-16T04:29:37;141.02;;;57.80;;
39994;SDS011;25686;51.908;10.418;2023-04-16T04:31:38;164.63;;;55.42;;
39994;SDS011;25686;51.908;10.418;2023-04-16T04:33:39;256.63;;;56.58;;
39994;SDS011;25686;51.908;10.418;2023-04-16T04:35:40;173.65;;;56.58;;
39994;SDS011;25686;51.908;10.418;2023-04-16T04:37:41;255.85;;;53.65;;
39994;SDS011;25686;51.908;10.418;2023-04-16T04:39:42;261.30;;;51.75;;
39994;SDS011;25686;51.908;10.418;2023-04-16T04:41:43;262.25;;;54.33;;
39994;SDS011;25686;51.908;10.418;2023-04-16T04:43:44;116.78;;;52.10;;
39994;SDS011;25686;51.908;10.418;2023-04-16T04:45:45;164.65;;;53.58;;
39994;SDS011;25686;51.908;10.418;2023-04-16T04:47:47;149.43;;;52.15;;
39994;SDS011;25686;51.908;10.418;2023-04-16T04:49:48;137.55;;;49.80;;
39994;SDS011;25686;51.908;10.418;2023-04-16T04:51:49;104.80;;;46.47;;
39994;SDS011;25686;51.908;10.418;2023-04-16T04:53:50;99.18;;;47.40;;
39994;SDS011;25686;51.908;10.418;2023-04-16T04:55:51;100.40;;;46.35;;
39994;SDS011;25686;51.908;10.418;2023-04-16T04:57:52;80.75;;;43.83;;
39994;SDS011;25686;51.908;10.418;2023-04-16T04:59:53;84.85;;;43.90;;
39994;SDS011;25686;51.908;10.418;2023-04-16T05:01:54;83.22;;;42.60;;
39994;SDS011;25686;51.908;10.418;2023-04-16T05:03:55;91.03;;;44.88;;
39994;SDS011;25686;51.908;10.418;2023-04-16T05:05:56;87.32;;;43.85;;
39994;SDS011;25686;51.908;10.418;2023-04-16T05:07:57;107.47;;;46.13;;
39994;SDS011;25686;51.908;10.418;2023-04-16T05:09:58;88.28;;;44.13;;
39994;SDS011;25686;51.908;10.418;2023-04-16T05:11:59;91.82;;;44.90;;
39994;SDS011;25686;51.908;10.418;2023-04-16T05:14:00;83.35;;;42.25;;
39994;SDS011;25686;51.908;10.418;2023-04-16T05:16:01;82.07;;;41.60;;
39994;SDS011;25686;51.908;10.418;2023-04-16T05:18:02;78.45;;;41.60;;
39994;SDS011;25686;51.908;10.418;2023-04-16T05:20:03;74.78;;;41.33;;
39994;SDS011;25686;51.908;10.418;2023-04-16T05:22:05;82.05;;;40.78;;
39994;SDS011;25686;51.908;10.418;2023-04-16T05:24:06;76.28;;;40.47;;
39994;SDS011;25686;51.908;10.418;2023-04-16T05:26:07;68.47;;;38.53;;
39994;SDS011;25686;51.908;10.418;2023-04-16T05:28:08;71.13;;;38.88;;
39994;SDS011;25686;51.908;10.418;2023-04-16T05:30:09;65.13;;;37.00;;
39994;SDS011;25686;51.908;10.418;2023-04-16T05:32:10;63.83;;;36.75;;
39994;SDS011;25686;51.908;10.418;2023-04-16T05:34:11;64.97;;;36.67;;
39994;SDS011;25686;51.908;10.418;2023-04-16T05:36:12;62.10;;;35.33;;
39994;SDS011;25686;51.908;10.418;2023-04-16T05:38:13;61.42;;;36.33;;
39994;SDS011;25686;51.908;10.418;2023-04-16T05:40:14;55.88;;;34.13;;
39994;SDS011;25686;51.908;10.418;2023-04-16T05:42:15;56.30;;;33.03;;
39994;SDS011;25686;51.908;10.418;2023-04-16T05:44:16;52.78;;;33.08;;
39994;SDS011;25686;51.908;10.418;2023-04-16T05:46:17;52.60;;;32.03;;
39994;SDS011;25686;51.908;10.418;2023-04-16T05:48:18;54.10;;;31.25;;
39994;SDS011;25686;51.908;10.418;2023-04-16T05:50:19;54.38;;;31.63;;
39994;SDS011;25686;51.908;10.418;2023-04-16T05:52:20;54.28;;;31.92;;
39994;SDS011;25686;51.908;10.418;2023-04-16T05:54:21;49.45;;;30.50;;
39994;SDS011;25686;51.908;10.418;2023-04-16T05:56:22;47.60;;;28.98;;
39994;SDS011;25686;51.908;10.418;2023-04-16T05:58:24;45.53;;;28.10;;
39994;SDS011;25686;51.908;10.418;2023-04-16T06:00:25;45.85;;;27.90;;
39994;SDS011;25686;51.908;10.418;2023-04-16T06:02:27;46.25;;;28.15;;
39994;SDS011;25686;51.908;10.418;2023-04-16T06:04:29;43.22;;;26.38;;
39994;SDS011;25686;51.908;10.418;2023-04-16T06:06:30;43.15;;;26.27;;
39994;SDS011;25686;51.908;10.418;2023-04-16T06:08:31;42.80;;;26.60;;
39994;SDS011;25686;51.908;10.418;2023-04-16T06:10:32;40.05;;;26.13;;
39994;SDS011;25686;51.908;10.418;2023-04-16T06:12:33;43.10;;;27.70;;
39994;SDS011;25686;51.908;10.418;2023-04-16T06:14:35;43.28;;;27.67;;
39994;SDS011;25686;51.908;10.418;2023-04-16T06:16:36;41.70;;;26.73;;
39994;SDS011;25686;51.908;10.418;2023-04-16T06:18:36;40.72;;;26.58;;
39994;SDS011;25686;51.908;10.418;2023-04-16T06:20:37;42.70;;;26.45;;
39994;SDS011;25686;51.908;10.418;2023-04-16T06:22:38;42.45;;;25.50;;
39994;SDS011;25686;51.908;10.418;2023-04-16T06:24:39;40.22;;;25.75;;
39994;SDS011;25686;51.908;10.418;2023-04-16T06:26:40;38.55;;;25.17;;
39994;SDS011;25686;51.908;10.418;2023-04-16T06:28:41;44.22;;;27.17;;
39994;SDS011;25686;51.908;10.418;2023-04-16T06:30:42;43.25;;;26.90;;
39994;SDS011;25686;51.908;10.418;2023-04-16T06:32:43;42.50;;;25.83;;
39994;SDS011;25686;51.908;10.418;2023-04-16T06:34:45;43.35;;;27.00;;
39994;SDS011;25686;51.908;10.418;2023-04-16T06:36:46;47.33;;;28.15;;
39994;SDS011;25686;51.908;10.418;2023-04-16T06:38:47;43.15;;;26.73;;
39994;SDS011;25686;51.908;10.418;2023-04-16T06:40:48;43.97;;;25.38;;
39994;SDS011;25686;51.908;10.418;2023-04-16T06:42:49;38.88;;;24.45;;
39994;SDS011;25686;51.908;10.418;2023-04-16T06:44:50;37.90;;;23.85;;
39994;SDS011;25686;51.908;10.418;2023-04-16T06:46:51;37.25;;;22.77;;
39994;SDS011;25686;51.908;10.418;2023-04-16T06:48:52;39.50;;;22.38;;
39994;SDS011;25686;51.908;10.418;2023-04-16T06:50:53;39.90;;;23.75;;
39994;SDS011;25686;51.908;10.418;2023-04-16T06:52:55;38.33;;;22.40;;
39994;SDS011;25686;51.908;10.418;2023-04-16T06:54:56;37.55;;;23.00;;
39994;SDS011;25686;51.908;10.418;2023-04-16T06:56:57;35.00;;;21.85;;
39994;SDS011;25686;51.908;10.418;2023-04-16T06:58:58;35.47;;;20.80;;
39994;SDS011;25686;51.908;10.418;2023-04-16T07:00:59;34.50;;;20.40;;
39994;SDS011;25686;51.908;10.418;2023-04-16T07:03:01;33.33;;;21.45;;
39994;SDS011;25686;51.908;10.418;2023-04-16T07:05:02;37.58;;;22.15;;
39994;SDS011;25686;51.908;10.418;2023-04-16T07:07:03;31.90;;;19.90;;
39994;SDS011;25686;51.908;10.418;2023-04-16T07:09:04;29.58;;;19.55;;
39994;SDS011;25686;51.908;10.418;2023-04-16T07:11:05;35.17;;;21.27;;
39994;SDS011;25686;51.908;10.418;2023-04-16T07:13:06;35.60;;;20.90;;
39994;SDS011;25686;51.908;10.418;2023-04-16T07:15:08;33.72;;;20.35;;
39994;SDS011;25686;51.908;10.418;2023-04-16T07:17:09;30.67;;;19.27;;
39994;SDS011;25686;51.908;10.418;2023-04-16T07:19:10;29.13;;;19.05;;
39994;SDS011;25686;51.908;10.418;2023-04-16T07:21:11;31.13;;;18.48;;
39994;SDS011;25686;51.908;10.418;2023-04-16T07:23:12;32.60;;;19.85;;
39994;SDS011;25686;51.908;10.418;2023-04-16T07:25:13;33.10;;;20.20;;
39994;SDS011;25686;51.908;10.418;2023-04-16T07:27:14;36.50;;;21.67;;
39994;SDS011;25686;51.908;10.418;2023-04-16T07:29:15;35.72;;;21.70;;
39994;SDS011;25686;51.908;10.418;2023-04-16T07:31:16;36.65;;;22.42;;
39994;SDS011;25686;51.908;10.418;2023-04-16T07:33:18;39.58;;;23.88;;
39994;SDS011;25686;51.908;10.418;2023-04-16T07:35:18;40.97;;;23.92;;
39994;SDS011;25686;51.908;10.418;2023-04-16T07:37:19;44.22;;;25.08;;
39994;SDS011;25686;51.908;10.418;2023-04-16T07:39:21;45.58;;;26.55;;
39994;SDS011;25686;51.908;10.418;2023-04-16T07:41:22;46.63;;;27.58;;
39994;SDS011;25686;51.908;10.418;2023-04-16T07:43:23;49.55;;;28.10;;
39994;SDS011;25686;51.908;10.418;2023-04-16T07:45:24;48.80;;;28.88;;
39994;SDS011;25686;51.908;10.418;2023-04-16T07:47:25;57.78;;;31.08;;
39994;SDS011;25686;51.908;10.418;2023-04-16T07:49:26;55.63;;;30.70;;
39994;SDS011;25686;51.908;10.418;2023-04-16T07:51:27;52.80;;;28.38;;
39994;SDS011;25686;51.908;10.418;2023-04-16T07:53:28;52.83;;;29.63;;
39994;SDS011;25686;51.908;10.418;2023-04-16T07:55:29;54.42;;;29.60;;
39994;SDS011;25686;51.908;10.418;2023-04-16T07:57:30;55.65;;;30.40;;
39994;SDS011;25686;51.908;10.418;2023-04-16T07:59:31;53.53;;;29.52;;
39994;SDS011;25686;51.908;10.418;2023-04-16T08:01:32;53.15;;;28.77;;
39994;SDS011;25686;51.908;10.418;2023-04-16T08:03:33;49.40;;;28.95;;
39994;SDS011;25686;51.908;10.418;2023-04-16T08:05:34;50.63;;;29.00;;
39994;SDS011;25686;51.908;10.418;2023-04-16T08:07:35;50.60;;;28.88;;
39994;SDS011;25686;51.908;10.418;2023-04-16T08:09:45;55.28;;;30.42;;
39994;SDS011;25686;51.908;10.418;2023-04-16T08:11:46;52.03;;;29.52;;
39994;SDS011;25686;51.908;10.418;2023-04-16T08:13:48;47.00;;;28.80;;
39994;SDS011;25686;51.908;10.418;2023-04-16T08:15:49;53.88;;;30.05;;
39994;SDS011;25686;51.908;10.418;2023-04-16T08:17:50;52.08;;;29.65;;
39994;SDS011;25686;51.908;10.418;2023-04-16T08:19:51;54.30;;;29.65;;
39994;SDS011;25686;51.908;10.418;2023-04-16T08:21:52;60.60;;;32.55;;
39994;SDS011;25686;51.908;10.418;2023-04-16T08:23:54;57.05;;;31.83;;
39994;SDS011;25686;51.908;10.418;2023-04-16T08:25:55;57.17;;;31.05;;
39994;SDS011;25686;51.908;10.418;2023-04-16T08:27:56;58.60;;;32.25;;
39994;SDS011;25686;51.908;10.418;2023-04-16T08:29:57;62.63;;;32.28;;
39994;SDS011;25686;51.908;10.418;2023-04-16T08:31:58;52.58;;;29.92;;
39994;SDS011;25686;51.908;10.418;2023-04-16T08:33:59;50.95;;;29.88;;
39994;SDS011;25686;51.908;10.418;2023-04-16T08:36:00;55.67;;;29.95;;
39994;SDS011;25686;51.908;10.418;2023-04-16T08:38:02;51.00;;;28.92;;
39994;SDS011;25686;51.908;10.418;2023-04-16T08:40:03;51.80;;;29.08;;
39994;SDS011;25686;51.908;10.418;2023-04-16T08:42:04;47.85;;;27.52;;
39994;SDS011;25686;51.908;10.418;2023-04-16T08:44:10;40.45;;;25.85;;
39994;SDS011;25686;51.908;10.418;2023-04-16T08:46:14;40.53;;;24.35;;
39994;SDS011;25686;51.908;10.418;2023-04-16T08:48:16;39.72;;;24.25;;
39994;SDS011;25686;51.908;10.418;2023-04-16T08:50:23;36.08;;;23.10;;
39994;SDS011;25686;51.908;10.418;2023-04-16T08:52:25;33.70;;;21.75;;
39994;SDS011;25686;51.908;10.418;2023-04-16T08:54:42;34.47;;;21.33;;
39994;SDS011;25686;51.908;10.418;2023-04-16T08:56:45;38.72;;;23.25;;
39994;SDS011;25686;51.908;10.418;2023-04-16T08:58:47;37.13;;;23.00;;
39994;SDS011;25686;51.908;10.418;2023-04-16T09:00:49;33.60;;;22.17;;
39994;SDS011;25686;51.908;10.418;2023-04-16T09:02:51;38.00;;;23.33;;
39994;SDS011;25686;51.908;10.418;2023-04-16T09:04:52;35.35;;;22.25;;
39994;SDS011;25686;51.908;10.418;2023-04-16T09:06:55;33.08;;;21.08;;
39994;SDS011;25686;51.908;10.418;2023-04-16T09:08:56;34.45;;;21.30;;
39994;SDS011;25686;51.908;10.418;2023-04-16T09:10:59;35.63;;;22.25;;
39994;SDS011;25686;51.908;10.418;2023-04-16T09:13:00;35.42;;;22.05;;
39994;SDS011;25686;51.908;10.418;2023-04-16T09:15:01;36.03;;;21.50;;
39994;SDS011;25686;51.908;10.418;2023-04-16T09:17:02;29.52;;;20.33;;
39994;SDS011;25686;51.908;10.418;2023-04-16T09:19:03;29.65;;;19.50;;
39994;SDS011;25686;51.908;10.418;2023-04-16T09:21:04;27.75;;;18.08;;
39994;SDS011;25686;51.908;10.418;2023-04-16T09:23:07;28.95;;;18.92;;
39994;SDS011;25686;51.908;10.418;2023-04-16T09:25:08;26.33;;;19.13;;
39994;SDS011;25686;51.908;10.418;2023-04-16T09:27:10;29.80;;;19.80;;
39994;SDS011;25686;51.908;10.418;2023-04-16T09:29:14;27.20;;;17.80;;
39994;SDS011;25686;51.908;10.418;2023-04-16T09:31:32;28.60;;;19.40;;
39994;SDS011;25686;51.908;10.418;2023-04-16T09:33:33;30.33;;;19.90;;
39994;SDS011;25686;51.908;10.418;2023-04-16T09:35:43;30.80;;;19.77;;
39994;SDS011;25686;51.908;10.418;2023-04-16T09:37:53;28.30;;;19.63;;
39994;SDS011;25686;51.908;10.418;2023-04-16T09:41:55;32.17;;;20.33;;
39994;SDS011;25686;51.908;10.418;2023-04-16T09:44:00;29.08;;;19.40;;
39994;SDS011;25686;51.908;10.418;2023-04-16T09:46:03;30.05;;;20.13;;
39994;SDS011;25686;51.908;10.418;2023-04-16T09:48:04;30.50;;;19.58;;
39994;SDS011;25686;51.908;10.418;2023-04-16T09:50:06;32.88;;;20.65;;
39994;SDS011;25686;51.908;10.418;2023-04-16T09:52:11;33.70;;;21.15;;
39994;SDS011;25686;51.908;10.418;2023-04-16T09:54:13;30.88;;;20.02;;
39994;SDS011;25686;51.908;10.418;2023-04-16T09:56:15;31.08;;;20.38;;
39994;SDS011;25686;51.908;10.418;2023-04-16T09:58:18;28.08;;;19.88;;
39994;SDS011;25686;51.908;10.418;2023-04-16T10:00:19;35.15;;;21.35;;
39994;SDS011;25686;51.908;10.418;2023-04-16T10:02:20;37.33;;;22.65;;
39994;SDS011;25686;51.908;10.418;2023-04-16T10:04:26;37.70;;;22.30;;
39994;SDS011;25686;51.908;10.418;2023-04-16T10:06:27;34.65;;;21.30;;
39994;SDS011;25686;51.908;10.418;2023-04-16T10:08:28;37.85;;;23.40;;
39994;SDS011;25686;51.908;10.418;2023-04-16T10:10:29;41.00;;;24.45;;
39994;SDS011;25686;51.908;10.418;2023-04-16T10:12:31;42.80;;;25.45;;
39994;SDS011;25686;51.908;10.418;2023-04-16T10:14:33;37.20;;;23.65;;
39994;SDS011;25686;51.908;10.418;2023-04-16T10:16:34;36.35;;;22.30;;
39994;SDS011;25686;51.908;10.418;2023-04-16T10:18:41;36.00;;;21.60;;
39994;SDS011;25686;51.908;10.418;2023-04-16T10:20:42;34.90;;;21.52;;
39994;SDS011;25686;51.908;10.418;2023-04-16T10:22:44;32.55;;;21.58;;
39994;SDS011;25686;51.908;10.418;2023-04-16T10:24:45;30.20;;;19.98;;
39994;SDS011;25686;51.908;10.418;2023-04-16T10:26:46;35.40;;;21.88;;
39994;SDS011;25686;51.908;10.418;2023-04-16T10:28:48;35.08;;;21.83;;
39994;SDS011;25686;51.908;10.418;2023-04-16T10:30:49;34.13;;;21.38;;
39994;SDS011;25686;51.908;10.418;2023-04-16T10:32:51;33.83;;;21.77;;
39994;SDS011;25686;51.908;10.418;2023-04-16T10:34:53;32.42;;;20.58;;
39994;SDS011;25686;51.908;10.418;2023-04-16T10:36:55;33.80;;;21.27;;
39994;SDS011;25686;51.908;10.418;2023-04-16T10:38:58;34.50;;;21.52;;
39994;SDS011;25686;51.908;10.418;2023-04-16T10:41:01;30.95;;;21.17;;
39994;SDS011;25686;51.908;10.418;2023-04-16T10:43:02;31.83;;;19.75;;
39994;SDS011;25686;51.908;10.418;2023-04-16T10:45:06;31.63;;;20.08;;
39994;SDS011;25686;51.908;10.418;2023-04-16T10:47:10;29.60;;;19.15;;
39994;SDS011;25686;51.908;10.418;2023-04-16T10:49:15;30.83;;;20.08;;
39994;SDS011;25686;51.908;10.418;2023-04-16T10:51:33;30.48;;;19.98;;
39994;SDS011;25686;51.908;10.418;2023-04-16T10:53:34;34.60;;;20.52;;
39994;SDS011;25686;51.908;10.418;2023-04-16T10:55:39;32.05;;;20.77;;
39994;SDS011;25686;51.908;10.418;2023-04-16T10:57:40;34.40;;;21.73;;
39994;SDS011;25686;51.908;10.418;2023-04-16T10:59:41;33.25;;;21.92;;
39994;SDS011;25686;51.908;10.418;2023-04-16T11:01:43;37.55;;;23.08;;
39994;SDS011;25686;51.908;10.418;2023-04-16T11:03:45;37.00;;;23.88;;
39994;SDS011;25686;51.908;10.418;2023-04-16T11:05:46;44.55;;;25.58;;
39994;SDS011;25686;51.908;10.418;2023-04-16T11:07:47;44.42;;;25.92;;
39994;SDS011;25686;51.908;10.418;2023-04-16T11:09:52;42.75;;;25.77;;
39994;SDS011;25686;51.908;10.418;2023-04-16T11:11:54;42.13;;;25.08;;
39994;SDS011;25686;51.908;10.418;2023-04-16T11:13:55;38.85;;;24.48;;
39994;SDS011;25686;51.908;10.418;2023-04-16T11:15:59;41.25;;;24.85;;
39994;SDS011;25686;51.908;10.418;2023-04-16T11:18:01;36.03;;;23.23;;
39994;SDS011;25686;51.908;10.418;2023-04-16T11:20:04;39.10;;;24.85;;
39994;SDS011;25686;51.908;10.418;2023-04-16T11:22:05;40.65;;;24.17;;
39994;SDS011;25686;51.908;10.418;2023-04-16T11:24:07;43.80;;;26.10;;
39994;SDS011;25686;51.908;10.418;2023-04-16T11:26:24;45.22;;;26.95;;
39994;SDS011;25686;51.908;10.418;2023-04-16T11:28:34;45.20;;;27.35;;
39994;SDS011;25686;51.908;10.418;2023-04-16T11:30:36;54.85;;;29.65;;
39994;SDS011;25686;51.908;10.418;2023-04-16T11:32:38;55.70;;;30.10;;
39994;SDS011;25686;51.908;10.418;2023-04-16T11:34:42;57.05;;;32.28;;
39994;SDS011;25686;51.908;10.418;2023-04-16T11:36:44;56.47;;;31.90;;
39994;SDS011;25686;51.908;10.418;2023-04-16T11:38:45;57.95;;;31.73;;
39994;SDS011;25686;51.908;10.418;2023-04-16T11:40:48;60.30;;;34.08;;
39994;SDS011;25686;51.908;10.418;2023-04-16T11:42:50;54.40;;;30.85;;